sensor_id;sensor_type;location;lat;lon;timestamp;temperature;humidity
44487;DHT22;30191;50.908;6.962;2022-07-04T00:00:52;20.20;99.90
44487;DHT22;30191;50.908;6.962;2022-07-04T00:03:18;20.10;99.90
44487;DHT22;30191;50.908;6.962;2022-07-04T00:05:43;20.10;99.90
44487;DHT22;30191;50.908;6.962;2022-07-04T00:08:09;20.10;99.90
44487;DHT22;30191;50.908;6.962;2022-07-04T00:10:35;20.00;99.90
44487;DHT22;30191;50.908;6.962;2022-07-04T00:13:01;20.00;99.90
44487;DHT22;30191;50.908;6.962;2022-07-04T00:15:26;20.00;99.90
44487;DHT22;30191;50.908;6.962;2022-07-04T00:17:52;20.00;99.90
44487;DHT22;30191;50.908;6.962;2022-07-04T00:20:18;20.00;99.90
44487;DHT22;30191;50.908;6.962;2022-07-04T00:22:44;20.00;99.90
44487;DHT22;30191;50.908;6.962;2022-07-04T00:25:10;19.90;99.90
44487;DHT22;30191;50.908;6.962;2022-07-04T00:27:36;19.80;99.90
44487;DHT22;30191;50.908;6.962;2022-07-04T00:30:03;19.80;99.90
44487;DHT22;30191;50.908;6.962;2022-07-04T00:32:29;19.80;99.90
44487;DHT22;30191;50.908;6.962;2022-07-04T00:34:55;19.80;99.90
44487;DHT22;30191;50.908;6.962;2022-07-04T00:37:21;19.80;99.90
44487;DHT22;30191;50.908;6.962;2022-07-04T00:39:47;19.70;99.90
44487;DHT22;30191;50.908;6.962;2022-07-04T00:42:13;19.70;99.90
44487;DHT22;30191;50.908;6.962;2022-07-04T00:44:44;19.70;99.90
44487;DHT22;30191;50.908;6.962;2022-07-04T00:47:09;19.70;99.90
44487;DHT22;30191;50.908;6.962;2022-07-04T00:49:35;19.60;99.90
44487;DHT22;30191;50.908;6.962;2022-07-04T00:52:02;19.50;99.90
44487;DHT22;30191;50.908;6.962;2022-07-04T00:54:29;19.60;99.90
44487;DHT22;30191;50.908;6.962;2022-07-04T00:56:56;19.60;99.90
44487;DHT22;30191;50.908;6.962;2022-07-04T00:59:22;19.50;99.90
44487;DHT22;30191;50.908;6.962;2022-07-04T01:01:49;19.40;99.90
44487;DHT22;30191;50.908;6.962;2022-07-04T01:04:15;19.40;99.90
44487;DHT22;30191;50.908;6.962;2022-07-04T01:06:41;19.40;99.90
44487;DHT22;30191;50.908;6.962;2022-07-04T01:09:07;19.30;99.90
44487;DHT22;30191;50.908;6.962;2022-07-04T01:11:33;19.30;99.90
44487;DHT22;30191;50.908;6.962;2022-07-04T01:13:59;19.30;99.90
44487;DHT22;30191;50.908;6.962;2022-07-04T01:16:25;19.30;99.90
44487;DHT22;30191;50.908;6.962;2022-07-04T01:18:55;19.30;99.90
44487;DHT22;30191;50.908;6.962;2022-07-04T01:21:21;19.30;99.90
44487;DHT22;30191;50.908;6.962;2022-07-04T01:23:47;19.20;99.90
44487;DHT22;30191;50.908;6.962;2022-07-04T01:26:13;19.20;99.90
44487;DHT22;30191;50.908;6.962;2022-07-04T01:28:39;19.20;99.90
44487;DHT22;30191;50.908;6.962;2022-07-04T01:31:05;19.30;99.90
44487;DHT22;30191;50.908;6.962;2022-07-04T01:33:31;19.20;99.90
44487;DHT22;30191;50.908;6.962;2022-07-04T01:35:58;19.20;99.90
44487;DHT22;30191;50.908;6.962;2022-07-04T01:38:24;19.20;99.90
44487;DHT22;30191;50.908;6.962;2022-07-04T01:40:49;19.10;99.90
44487;DHT22;30191;50.908;6.962;2022-07-04T01:43:15;19.10;99.90
44487;DHT22;30191;50.908;6.962;2022-07-04T01:45:41;19.00;99.90
44487;DHT22;30191;50.908;6.962;2022-07-04T01:48:08;18.90;99.90
44487;DHT22;30191;50.908;6.962;2022-07-04T01:50:34;18.90;99.90
44487;DHT22;30191;50.908;6.962;2022-07-04T01:53:01;18.90;99.90
44487;DHT22;30191;50.908;6.962;2022-07-04T01:55:27;18.80;99.90
44487;DHT22;30191;50.908;6.962;2022-07-04T01:57:53;18.90;99.90
44487;DHT22;30191;50.908;6.962;2022-07-04T02:00:19;18.90;99.90
44487;DHT22;30191;50.908;6.962;2022-07-04T02:03:03;18.80;99.90
44487;DHT22;30191;50.908;6.962;2022-07-04T02:05:29;18.80;99.90
44487;DHT22;30191;50.908;6.962;2022-07-04T02:07:54;18.80;99.90
44487;DHT22;30191;50.908;6.962;2022-07-04T02:10:21;18.80;99.90
44487;DHT22;30191;50.908;6.962;2022-07-04T02:12:47;18.70;99.90
44487;DHT22;30191;50.908;6.962;2022-07-04T02:15:35;18.70;99.90
44487;DHT22;30191;50.908;6.962;2022-07-04T02:18:03;18.60;99.90
44487;DHT22;30191;50.908;6.962;2022-07-04T02:20:29;18.60;99.90
44487;DHT22;30191;50.908;6.962;2022-07-04T02:22:55;18.40;99.90
44487;DHT22;30191;50.908;6.962;2022-07-04T02:25:21;18.40;99.90
44487;DHT22;30191;50.908;6.962;2022-07-04T02:27:47;18.30;99.90
44487;DHT22;30191;50.908;6.962;2022-07-04T02:30:13;18.30;99.90
44487;DHT22;30191;50.908;6.962;2022-07-04T02:32:39;18.30;99.90
44487;DHT22;30191;50.908;6.962;2022-07-04T02:35:06;18.20;99.90
44487;DHT22;30191;50.908;6.962;2022-07-04T02:37:32;18.20;99.90
44487;DHT22;30191;50.908;6.962;2022-07-04T02:39:57;18.30;99.90
44487;DHT22;30191;50.908;6.962;2022-07-04T02:42:23;18.30;99.90
44487;DHT22;30191;50.908;6.962;2022-07-04T02:44:49;18.30;99.90
44487;DHT22;30191;50.908;6.962;2022-07-04T02:47:15;18.30;99.90
44487;DHT22;30191;50.908;6.962;2022-07-04T02:49:41;18.30;99.90
44487;DHT22;30191;50.908;6.962;2022-07-04T02:52:07;18.20;99.90
44487;DHT22;30191;50.908;6.962;2022-07-04T02:54:33;18.20;99.90
44487;DHT22;30191;50.908;6.962;2022-07-04T02:56:58;18.20;99.90
44487;DHT22;30191;50.908;6.962;2022-07-04T02:59:24;18.20;99.90
44487;DHT22;30191;50.908;6.962;2022-07-04T03:01:50;18.20;99.90
44487;DHT22;30191;50.908;6.962;2022-07-04T03:04:15;18.20;99.90
44487;DHT22;30191;50.908;6.962;2022-07-04T03:06:41;18.20;99.90
44487;DHT22;30191;50.908;6.962;2022-07-04T03:09:09;18.10;99.90
44487;DHT22;30191;50.908;6.962;2022-07-04T03:11:35;18.10;99.90
44487;DHT22;30191;50.908;6.962;2022-07-04T03:14:01;18.10;99.90
44487;DHT22;30191;50.908;6.962;2022-07-04T03:16:27;18.00;99.90
44487;DHT22;30191;50.908;6.962;2022-07-04T03:18:52;18.00;99.90
44487;DHT22;30191;50.908;6.962;2022-07-04T03:21:18;17.90;99.90
44487;DHT22;30191;50.908;6.962;2022-07-04T03:23:44;17.90;99.90
44487;DHT22;30191;50.908;6.962;2022-07-04T03:26:24;17.90;99.90
44487;DHT22;30191;50.908;6.962;2022-07-04T03:28:50;17.80;99.90
44487;DHT22;30191;50.908;6.962;2022-07-04T03:31:16;17.70;99.90
44487;DHT22;30191;50.908;6.962;2022-07-04T03:33:42;17.80;99.90
44487;DHT22;30191;50.908;6.962;2022-07-04T03:36:08;17.80;99.90
44487;DHT22;30191;50.908;6.962;2022-07-04T03:38:33;17.80;99.90
44487;DHT22;30191;50.908;6.962;2022-07-04T03:40:59;17.80;99.90
44487;DHT22;30191;50.908;6.962;2022-07-04T03:43:25;17.80;99.90
44487;DHT22;30191;50.908;6.962;2022-07-04T03:45:51;17.70;99.90
44487;DHT22;30191;50.908;6.962;2022-07-04T03:48:16;17.70;99.90
44487;DHT22;30191;50.908;6.962;2022-07-04T03:50:42;17.70;99.90
44487;DHT22;30191;50.908;6.962;2022-07-04T03:53:07;17.70;99.90
44487;DHT22;30191;50.908;6.962;2022-07-04T03:55:33;17.70;99.90
44487;DHT22;30191;50.908;6.962;2022-07-04T03:57:59;17.60;99.90
44487;DHT22;30191;50.908;6.962;2022-07-04T04:00:25;17.60;99.90
44487;DHT22;30191;50.908;6.962;2022-07-04T04:02:50;17.50;99.90
44487;DHT22;30191;50.908;6.962;2022-07-04T04:05:16;17.50;99.90
44487;DHT22;30191;50.908;6.962;2022-07-04T04:08:00;17.50;99.90
44487;DHT22;30191;50.908;6.962;2022-07-04T04:10:29;17.60;99.90
44487;DHT22;30191;50.908;6.962;2022-07-04T04:12:56;17.60;99.90
44487;DHT22;30191;50.908;6.962;2022-07-04T04:15:22;17.60;99.90
44487;DHT22;30191;50.908;6.962;2022-07-04T04:17:47;17.50;99.90
44487;DHT22;30191;50.908;6.962;2022-07-04T04:20:13;17.50;99.90
44487;DHT22;30191;50.908;6.962;2022-07-04T04:22:39;17.50;99.90
44487;DHT22;30191;50.908;6.962;2022-07-04T04:25:05;17.40;99.90
44487;DHT22;30191;50.908;6.962;2022-07-04T04:27:31;17.40;99.90
44487;DHT22;30191;50.908;6.962;2022-07-04T04:29:56;17.40;99.90
44487;DHT22;30191;50.908;6.962;2022-07-04T04:32:22;17.40;99.90
44487;DHT22;30191;50.908;6.962;2022-07-04T04:34:48;17.40;99.90
44487;DHT22;30191;50.908;6.962;2022-07-04T04:37:13;17.50;99.90
44487;DHT22;30191;50.908;6.962;2022-07-04T04:39:39;17.40;99.90
44487;DHT22;30191;50.908;6.962;2022-07-04T04:42:06;17.40;99.90
44487;DHT22;30191;50.908;6.962;2022-07-04T04:44:32;17.40;99.90
44487;DHT22;30191;50.908;6.962;2022-07-04T04:46:58;17.40;99.90
44487;DHT22;30191;50.908;6.962;2022-07-04T04:49:23;17.50;99.90
44487;DHT22;30191;50.908;6.962;2022-07-04T04:51:49;17.40;99.90
44487;DHT22;30191;50.908;6.962;2022-07-04T04:54:15;17.50;99.90
44487;DHT22;30191;50.908;6.962;2022-07-04T04:56:40;17.50;99.90
44487;DHT22;30191;50.908;6.962;2022-07-04T04:59:06;17.50;99.90
44487;DHT22;30191;50.908;6.962;2022-07-04T05:01:33;17.60;99.90
44487;DHT22;30191;50.908;6.962;2022-07-04T05:03:59;17.60;99.90
44487;DHT22;30191;50.908;6.962;2022-07-04T05:06:25;17.60;99.90
44487;DHT22;30191;50.908;6.962;2022-07-04T05:08:50;17.70;99.90
44487;DHT22;30191;50.908;6.962;2022-07-04T05:11:16;17.70;99.90
44487;DHT22;30191;50.908;6.962;2022-07-04T05:13:42;17.60;99.90
44487;DHT22;30191;50.908;6.962;2022-07-04T05:16:07;17.70;99.90
44487;DHT22;30191;50.908;6.962;2022-07-04T05:18:33;17.70;99.90
44487;DHT22;30191;50.908;6.962;2022-07-04T05:20:59;17.70;99.90
44487;DHT22;30191;50.908;6.962;2022-07-04T05:23:25;17.70;99.90
44487;DHT22;30191;50.908;6.962;2022-07-04T05:25:51;17.70;99.90
44487;DHT22;30191;50.908;6.962;2022-07-04T05:28:16;17.70;99.90
44487;DHT22;30191;50.908;6.962;2022-07-04T05:30:42;17.70;99.90
44487;DHT22;30191;50.908;6.962;2022-07-04T05:33:08;17.80;99.90
44487;DHT22;30191;50.908;6.962;2022-07-04T05:35:34;17.80;99.90
44487;DHT22;30191;50.908;6.962;2022-07-04T05:38:00;17.80;99.90
44487;DHT22;30191;50.908;6.962;2022-07-04T05:40:26;17.90;99.90
44487;DHT22;30191;50.908;6.962;2022-07-04T05:42:51;17.90;99.90
44487;DHT22;30191;50.908;6.962;2022-07-04T05:45:17;17.90;99.90
44487;DHT22;30191;50.908;6.962;2022-07-04T05:47:43;17.90;99.90
44487;DHT22;30191;50.908;6.962;2022-07-04T05:50:09;18.00;99.90
44487;DHT22;30191;50.908;6.962;2022-07-04T05:52:35;18.10;99.90
44487;DHT22;30191;50.908;6.962;2022-07-04T05:55:01;18.10;99.90
44487;DHT22;30191;50.908;6.962;2022-07-04T05:57:27;18.20;99.90
44487;DHT22;30191;50.908;6.962;2022-07-04T05:59:53;18.20;99.90
44487;DHT22;30191;50.908;6.962;2022-07-04T06:02:19;18.20;99.90
44487;DHT22;30191;50.908;6.962;2022-07-04T06:04:44;18.30;99.90
44487;DHT22;30191;50.908;6.962;2022-07-04T06:07:10;18.30;99.90
44487;DHT22;30191;50.908;6.962;2022-07-04T06:09:36;18.30;99.90
44487;DHT22;30191;50.908;6.962;2022-07-04T06:12:03;18.30;99.90
44487;DHT22;30191;50.908;6.962;2022-07-04T06:14:29;18.30;99.90
44487;DHT22;30191;50.908;6.962;2022-07-04T06:16:54;18.30;99.90
44487;DHT22;30191;50.908;6.962;2022-07-04T06:19:20;18.30;99.90
44487;DHT22;30191;50.908;6.962;2022-07-04T06:21:46;18.40;99.90
44487;DHT22;30191;50.908;6.962;2022-07-04T06:24:11;18.40;99.90
44487;DHT22;30191;50.908;6.962;2022-07-04T06:26:37;18.40;99.90
44487;DHT22;30191;50.908;6.962;2022-07-04T06:29:03;18.50;99.90
44487;DHT22;30191;50.908;6.962;2022-07-04T06:31:29;18.60;99.90
44487;DHT22;30191;50.908;6.962;2022-07-04T06:33:54;18.60;99.90
44487;DHT22;30191;50.908;6.962;2022-07-04T06:36:39;18.70;99.90
44487;DHT22;30191;50.908;6.962;2022-07-04T06:39:04;18.70;99.90
44487;DHT22;30191;50.908;6.962;2022-07-04T06:41:30;18.70;99.90
44487;DHT22;30191;50.908;6.962;2022-07-04T06:43:56;18.70;99.90
44487;DHT22;30191;50.908;6.962;2022-07-04T06:46:21;18.70;99.90
44487;DHT22;30191;50.908;6.962;2022-07-04T06:48:47;18.70;99.90
44487;DHT22;30191;50.908;6.962;2022-07-04T06:51:13;18.70;99.90
44487;DHT22;30191;50.908;6.962;2022-07-04T06:53:41;18.80;99.90
44487;DHT22;30191;50.908;6.962;2022-07-04T06:56:06;18.80;99.90
44487;DHT22;30191;50.908;6.962;2022-07-04T06:58:32;18.80;99.90
44487;DHT22;30191;50.908;6.962;2022-07-04T07:00:58;18.80;99.90
44487;DHT22;30191;50.908;6.962;2022-07-04T07:03:24;18.80;99.90
44487;DHT22;30191;50.908;6.962;2022-07-04T07:05:50;18.90;99.90
44487;DHT22;30191;50.908;6.962;2022-07-04T07:08:16;18.90;99.90
44487;DHT22;30191;50.908;6.962;2022-07-04T07:10:41;18.90;99.90
44487;DHT22;30191;50.908;6.962;2022-07-04T07:13:07;18.90;99.90
44487;DHT22;30191;50.908;6.962;2022-07-04T07:15:33;18.90;99.90
44487;DHT22;30191;50.908;6.962;2022-07-04T07:18:02;19.00;99.90
44487;DHT22;30191;50.908;6.962;2022-07-04T07:20:27;19.00;99.90
44487;DHT22;30191;50.908;6.962;2022-07-04T07:22:53;19.00;99.90
44487;DHT22;30191;50.908;6.962;2022-07-04T07:25:19;19.00;99.90
44487;DHT22;30191;50.908;6.962;2022-07-04T07:27:44;19.00;99.90
44487;DHT22;30191;50.908;6.962;2022-07-04T07:30:10;19.10;99.90
44487;DHT22;30191;50.908;6.962;2022-07-04T07:32:36;19.10;99.90
44487;DHT22;30191;50.908;6.962;2022-07-04T07:35:02;19.10;99.90
44487;DHT22;30191;50.908;6.962;2022-07-04T07:37:28;19.10;99.90
44487;DHT22;30191;50.908;6.962;2022-07-04T07:39:54;19.10;99.90
44487;DHT22;30191;50.908;6.962;2022-07-04T07:42:20;19.20;99.90
44487;DHT22;30191;50.908;6.962;2022-07-04T07:44:48;19.20;99.90
44487;DHT22;30191;50.908;6.962;2022-07-04T07:47:14;19.20;99.90
44487;DHT22;30191;50.908;6.962;2022-07-04T07:49:41;19.30;99.90
44487;DHT22;30191;50.908;6.962;2022-07-04T07:52:07;19.20;99.90
44487;DHT22;30191;50.908;6.962;2022-07-04T07:54:32;19.30;99.90
44487;DHT22;30191;50.908;6.962;2022-07-04T07:56:58;19.30;99.90
44487;DHT22;30191;50.908;6.962;2022-07-04T07:59:24;19.30;99.90
44487;DHT22;30191;50.908;6.962;2022-07-04T08:01:49;19.30;99.90
44487;DHT22;30191;50.908;6.962;2022-07-04T08:04:15;19.40;99.70
44487;DHT22;30191;50.908;6.962;2022-07-04T08:07:00;19.40;99.30
44487;DHT22;30191;50.908;6.962;2022-07-04T08:09:25;19.30;98.60
44487;DHT22;30191;50.908;6.962;2022-07-04T08:11:51;19.40;97.90
44487;DHT22;30191;50.908;6.962;2022-07-04T08:14:17;19.40;98.00
44487;DHT22;30191;50.908;6.962;2022-07-04T08:16:42;19.40;97.50
44487;DHT22;30191;50.908;6.962;2022-07-04T08:19:08;19.40;97.60
44487;DHT22;30191;50.908;6.962;2022-07-04T08:21:34;19.30;97.50
44487;DHT22;30191;50.908;6.962;2022-07-04T08:24:00;19.30;97.40
44487;DHT22;30191;50.908;6.962;2022-07-04T08:26:26;19.30;97.70
44487;DHT22;30191;50.908;6.962;2022-07-04T08:28:52;19.40;97.60
44487;DHT22;30191;50.908;6.962;2022-07-04T08:31:21;19.50;97.90
44487;DHT22;30191;50.908;6.962;2022-07-04T08:33:46;19.50;98.30
44487;DHT22;30191;50.908;6.962;2022-07-04T08:36:13;19.50;98.10
44487;DHT22;30191;50.908;6.962;2022-07-04T08:38:38;19.50;98.10
44487;DHT22;30191;50.908;6.962;2022-07-04T08:41:04;19.60;98.10
44487;DHT22;30191;50.908;6.962;2022-07-04T08:43:31;19.60;98.30
44487;DHT22;30191;50.908;6.962;2022-07-04T08:46:04;19.70;98.20
44487;DHT22;30191;50.908;6.962;2022-07-04T08:48:31;19.70;98.20
44487;DHT22;30191;50.908;6.962;2022-07-04T08:51:04;19.80;98.00
44487;DHT22;30191;50.908;6.962;2022-07-04T08:53:38;19.80;98.20
44487;DHT22;30191;50.908;6.962;2022-07-04T08:56:05;19.80;97.90
44487;DHT22;30191;50.908;6.962;2022-07-04T08:58:50;19.90;97.50
44487;DHT22;30191;50.908;6.962;2022-07-04T09:01:16;19.90;97.70
44487;DHT22;30191;50.908;6.962;2022-07-04T09:03:44;19.90;97.70
44487;DHT22;30191;50.908;6.962;2022-07-04T09:06:13;19.90;97.60
44487;DHT22;30191;50.908;6.962;2022-07-04T09:08:40;20.00;97.50
44487;DHT22;30191;50.908;6.962;2022-07-04T09:11:06;20.00;97.60
44487;DHT22;30191;50.908;6.962;2022-07-04T09:13:33;20.00;97.90
44487;DHT22;30191;50.908;6.962;2022-07-04T09:16:00;20.00;97.50
44487;DHT22;30191;50.908;6.962;2022-07-04T09:18:33;20.10;97.40
44487;DHT22;30191;50.908;6.962;2022-07-04T09:21:03;20.20;97.50
44487;DHT22;30191;50.908;6.962;2022-07-04T09:23:31;20.20;97.30
44487;DHT22;30191;50.908;6.962;2022-07-04T09:28:34;20.10;97.80
44487;DHT22;30191;50.908;6.962;2022-07-04T09:31:00;20.10;97.80
44487;DHT22;30191;50.908;6.962;2022-07-04T09:36:15;20.20;98.10
44487;DHT22;30191;50.908;6.962;2022-07-04T09:38:41;20.20;97.90
44487;DHT22;30191;50.908;6.962;2022-07-04T09:41:07;20.30;98.20
44487;DHT22;30191;50.908;6.962;2022-07-04T09:44:09;20.30;98.20
44487;DHT22;30191;50.908;6.962;2022-07-04T09:46:35;20.40;97.90
44487;DHT22;30191;50.908;6.962;2022-07-04T09:49:01;20.50;98.10
44487;DHT22;30191;50.908;6.962;2022-07-04T09:51:41;20.60;97.80
44487;DHT22;30191;50.908;6.962;2022-07-04T09:54:19;20.50;97.70
44487;DHT22;30191;50.908;6.962;2022-07-04T09:56:49;20.50;97.80
44487;DHT22;30191;50.908;6.962;2022-07-04T09:59:15;20.50;97.50
44487;DHT22;30191;50.908;6.962;2022-07-04T10:01:41;20.50;97.20
44487;DHT22;30191;50.908;6.962;2022-07-04T10:04:07;20.60;97.30
44487;DHT22;30191;50.908;6.962;2022-07-04T10:06:37;20.70;97.20
44487;DHT22;30191;50.908;6.962;2022-07-04T10:09:09;20.80;96.70
44487;DHT22;30191;50.908;6.962;2022-07-04T10:11:36;20.90;96.70
44487;DHT22;30191;50.908;6.962;2022-07-04T10:14:05;20.90;96.50
44487;DHT22;30191;50.908;6.962;2022-07-04T10:16:31;20.90;96.50
44487;DHT22;30191;50.908;6.962;2022-07-04T10:18:57;20.90;96.30
44487;DHT22;30191;50.908;6.962;2022-07-04T10:21:24;20.90;96.00
44487;DHT22;30191;50.908;6.962;2022-07-04T10:23:52;21.00;95.60
44487;DHT22;30191;50.908;6.962;2022-07-04T10:26:19;21.00;95.30
44487;DHT22;30191;50.908;6.962;2022-07-04T10:28:46;21.00;96.30
44487;DHT22;30191;50.908;6.962;2022-07-04T10:31:13;21.00;96.10
44487;DHT22;30191;50.908;6.962;2022-07-04T10:33:41;21.00;96.00
44487;DHT22;30191;50.908;6.962;2022-07-04T10:36:17;21.10;96.20
44487;DHT22;30191;50.908;6.962;2022-07-04T10:39:04;21.20;97.30
44487;DHT22;30191;50.908;6.962;2022-07-04T10:41:30;21.30;96.50
44487;DHT22;30191;50.908;6.962;2022-07-04T10:44:06;21.30;96.00
44487;DHT22;30191;50.908;6.962;2022-07-04T10:46:49;21.40;96.70
44487;DHT22;30191;50.908;6.962;2022-07-04T10:49:21;21.50;95.80
44487;DHT22;30191;50.908;6.962;2022-07-04T10:54:31;21.40;96.00
44487;DHT22;30191;50.908;6.962;2022-07-04T10:57:18;21.40;96.30
44487;DHT22;30191;50.908;6.962;2022-07-04T11:04:55;21.60;96.30
44487;DHT22;30191;50.908;6.962;2022-07-04T11:07:24;21.60;96.10
44487;DHT22;30191;50.908;6.962;2022-07-04T11:17:57;21.60;95.30
44487;DHT22;30191;50.908;6.962;2022-07-04T11:20:24;21.70;95.00
44487;DHT22;30191;50.908;6.962;2022-07-04T11:22:50;21.90;94.90
44487;DHT22;30191;50.908;6.962;2022-07-04T11:25:16;22.00;95.10
44487;DHT22;30191;50.908;6.962;2022-07-04T11:27:42;22.10;95.10
44487;DHT22;30191;50.908;6.962;2022-07-04T11:30:09;22.30;95.20
44487;DHT22;30191;50.908;6.962;2022-07-04T11:32:37;22.30;95.10
44487;DHT22;30191;50.908;6.962;2022-07-04T11:35:04;22.40;95.20
44487;DHT22;30191;50.908;6.962;2022-07-04T11:37:31;22.50;94.40
44487;DHT22;30191;50.908;6.962;2022-07-04T11:39:57;22.50;94.50
44487;DHT22;30191;50.908;6.962;2022-07-04T11:43:05;22.60;94.10
44487;DHT22;30191;50.908;6.962;2022-07-04T11:45:51;22.70;94.20
44487;DHT22;30191;50.908;6.962;2022-07-04T11:48:26;22.80;93.70
44487;DHT22;30191;50.908;6.962;2022-07-04T11:50:53;22.80;94.60
44487;DHT22;30191;50.908;6.962;2022-07-04T11:53:19;22.80;94.40
44487;DHT22;30191;50.908;6.962;2022-07-04T11:55:56;22.80;95.00
44487;DHT22;30191;50.908;6.962;2022-07-04T11:58:23;22.90;94.60
44487;DHT22;30191;50.908;6.962;2022-07-04T12:00:48;23.00;94.80
44487;DHT22;30191;50.908;6.962;2022-07-04T12:03:14;23.10;94.40
44487;DHT22;30191;50.908;6.962;2022-07-04T12:05:40;22.90;94.30
44487;DHT22;30191;50.908;6.962;2022-07-04T12:08:07;22.80;94.50
44487;DHT22;30191;50.908;6.962;2022-07-04T12:10:33;22.90;94.60
44487;DHT22;30191;50.908;6.962;2022-07-04T12:13:04;22.90;94.80
44487;DHT22;30191;50.908;6.962;2022-07-04T12:15:51;23.00;94.30
44487;DHT22;30191;50.908;6.962;2022-07-04T12:18:25;23.00;94.30
44487;DHT22;30191;50.908;6.962;2022-07-04T12:20:52;23.10;94.10
44487;DHT22;30191;50.908;6.962;2022-07-04T12:23:19;23.20;93.90
44487;DHT22;30191;50.908;6.962;2022-07-04T12:25:47;23.20;93.50
44487;DHT22;30191;50.908;6.962;2022-07-04T12:28:15;23.40;92.80
44487;DHT22;30191;50.908;6.962;2022-07-04T12:31:01;23.30;92.80
44487;DHT22;30191;50.908;6.962;2022-07-04T12:33:28;23.30;93.20
44487;DHT22;30191;50.908;6.962;2022-07-04T12:36:04;23.20;92.80
44487;DHT22;30191;50.908;6.962;2022-07-04T12:38:38;23.30;93.30
44487;DHT22;30191;50.908;6.962;2022-07-04T12:41:08;23.40;93.40
44487;DHT22;30191;50.908;6.962;2022-07-04T12:48:50;23.70;93.00
44487;DHT22;30191;50.908;6.962;2022-07-04T12:51:26;23.80;92.60
44487;DHT22;30191;50.908;6.962;2022-07-04T12:53:54;23.90;92.50
44487;DHT22;30191;50.908;6.962;2022-07-04T12:56:37;24.00;92.60
44487;DHT22;30191;50.908;6.962;2022-07-04T12:59:05;24.30;92.50
44487;DHT22;30191;50.908;6.962;2022-07-04T13:01:31;24.60;92.10
44487;DHT22;30191;50.908;6.962;2022-07-04T13:03:58;24.70;91.40
44487;DHT22;30191;50.908;6.962;2022-07-04T13:06:24;24.80;91.20
44487;DHT22;30191;50.908;6.962;2022-07-04T13:08:49;24.90;91.10
44487;DHT22;30191;50.908;6.962;2022-07-04T13:11:15;25.00;90.70
44487;DHT22;30191;50.908;6.962;2022-07-04T13:14:00;25.20;90.20
44487;DHT22;30191;50.908;6.962;2022-07-04T13:16:25;25.30;90.30
44487;DHT22;30191;50.908;6.962;2022-07-04T13:18:51;25.30;90.30
44487;DHT22;30191;50.908;6.962;2022-07-04T13:21:17;25.50;90.60
44487;DHT22;30191;50.908;6.962;2022-07-04T13:23:42;25.80;90.10
44487;DHT22;30191;50.908;6.962;2022-07-04T13:26:08;25.90;89.20
44487;DHT22;30191;50.908;6.962;2022-07-04T13:28:34;26.10;88.60
44487;DHT22;30191;50.908;6.962;2022-07-04T13:31:00;26.10;88.40
44487;DHT22;30191;50.908;6.962;2022-07-04T13:33:27;26.50;89.70
44487;DHT22;30191;50.908;6.962;2022-07-04T13:35:53;26.70;87.50
44487;DHT22;30191;50.908;6.962;2022-07-04T13:38:19;26.80;86.60
44487;DHT22;30191;50.908;6.962;2022-07-04T13:40:45;27.00;85.60
44487;DHT22;30191;50.908;6.962;2022-07-04T13:43:11;27.00;84.40
44487;DHT22;30191;50.908;6.962;2022-07-04T13:45:38;26.60;84.40
44487;DHT22;30191;50.908;6.962;2022-07-04T13:48:05;26.50;84.80
44487;DHT22;30191;50.908;6.962;2022-07-04T13:50:31;26.80;83.90
44487;DHT22;30191;50.908;6.962;2022-07-04T13:52:57;27.10;82.90
44487;DHT22;30191;50.908;6.962;2022-07-04T13:55:23;27.70;83.10
44487;DHT22;30191;50.908;6.962;2022-07-04T13:57:48;28.50;81.20
44487;DHT22;30191;50.908;6.962;2022-07-04T14:00:14;28.60;80.70
44487;DHT22;30191;50.908;6.962;2022-07-04T14:02:40;29.10;80.40
44487;DHT22;30191;50.908;6.962;2022-07-04T14:05:06;28.60;79.80
44487;DHT22;30191;50.908;6.962;2022-07-04T14:07:32;28.40;79.60
44487;DHT22;30191;50.908;6.962;2022-07-04T14:09:59;30.10;80.00
44487;DHT22;30191;50.908;6.962;2022-07-04T14:12:25;31.40;77.00
44487;DHT22;30191;50.908;6.962;2022-07-04T14:14:51;33.20;73.50
44487;DHT22;30191;50.908;6.962;2022-07-04T14:17:17;34.10;70.40
44487;DHT22;30191;50.908;6.962;2022-07-04T14:19:43;32.70;68.90
44487;DHT22;30191;50.908;6.962;2022-07-04T14:22:08;31.10;69.20
44487;DHT22;30191;50.908;6.962;2022-07-04T14:24:34;29.30;71.10
44487;DHT22;30191;50.908;6.962;2022-07-04T14:27:00;28.50;72.30
44487;DHT22;30191;50.908;6.962;2022-07-04T14:29:25;29.30;72.30
44487;DHT22;30191;50.908;6.962;2022-07-04T14:31:51;30.90;71.60
44487;DHT22;30191;50.908;6.962;2022-07-04T14:34:18;31.90;69.50
44487;DHT22;30191;50.908;6.962;2022-07-04T14:36:43;33.00;68.00
44487;DHT22;30191;50.908;6.962;2022-07-04T14:39:09;33.50;65.80
44487;DHT22;30191;50.908;6.962;2022-07-04T14:41:35;32.80;65.30
44487;DHT22;30191;50.908;6.962;2022-07-04T14:44:01;32.10;64.90
44487;DHT22;30191;50.908;6.962;2022-07-04T14:46:27;32.40;66.50
44487;DHT22;30191;50.908;6.962;2022-07-04T14:48:55;33.20;65.60
44487;DHT22;30191;50.908;6.962;2022-07-04T14:51:21;33.70;65.40
44487;DHT22;30191;50.908;6.962;2022-07-04T14:53:46;34.30;64.20
44487;DHT22;30191;50.908;6.962;2022-07-04T14:56:12;34.30;64.00
44487;DHT22;30191;50.908;6.962;2022-07-04T14:58:37;34.50;62.00
44487;DHT22;30191;50.908;6.962;2022-07-04T15:01:03;34.60;62.30
44487;DHT22;30191;50.908;6.962;2022-07-04T15:03:29;34.70;62.10
44487;DHT22;30191;50.908;6.962;2022-07-04T15:05:55;34.80;62.30
44487;DHT22;30191;50.908;6.962;2022-07-04T15:08:20;35.00;61.40
44487;DHT22;30191;50.908;6.962;2022-07-04T15:10:46;34.70;61.10
44487;DHT22;30191;50.908;6.962;2022-07-04T15:13:12;34.10;61.70
44487;DHT22;30191;50.908;6.962;2022-07-04T15:15:39;34.00;61.90
44487;DHT22;30191;50.908;6.962;2022-07-04T15:18:05;33.50;61.10
44487;DHT22;30191;50.908;6.962;2022-07-04T15:20:31;33.50;61.40
44487;DHT22;30191;50.908;6.962;2022-07-04T15:23:15;33.70;61.30
44487;DHT22;30191;50.908;6.962;2022-07-04T15:25:59;33.40;61.10
44487;DHT22;30191;50.908;6.962;2022-07-04T15:28:25;32.60;61.10
44487;DHT22;30191;50.908;6.962;2022-07-04T15:30:51;31.70;61.80
44487;DHT22;30191;50.908;6.962;2022-07-04T15:33:18;31.00;62.00
44487;DHT22;30191;50.908;6.962;2022-07-04T15:35:45;30.40;63.00
44487;DHT22;30191;50.908;6.962;2022-07-04T15:38:12;30.80;63.80
44487;DHT22;30191;50.908;6.962;2022-07-04T15:40:37;30.80;63.10
44487;DHT22;30191;50.908;6.962;2022-07-04T15:43:05;31.00;63.30
44487;DHT22;30191;50.908;6.962;2022-07-04T15:45:31;31.80;62.60
44487;DHT22;30191;50.908;6.962;2022-07-04T15:47:57;31.80;61.70
44487;DHT22;30191;50.908;6.962;2022-07-04T15:50:22;31.50;62.00
44487;DHT22;30191;50.908;6.962;2022-07-04T15:52:49;31.50;62.70
44487;DHT22;30191;50.908;6.962;2022-07-04T15:55:15;31.40;62.70
44487;DHT22;30191;50.908;6.962;2022-07-04T15:57:40;31.00;62.50